Pagrindinis puslapis
METAR-TAF:

METAR-TAF

Oro uostai :

Pompano Beach Airpark

Pompano Beach, Florida, Jungtinės Amerikos Valstijos

platuma: 26-14-44N, ilguma: 080-06-41W, Aukštis: 6 m

Dabartinis oras

Ataskaita buvo paskelbta 46 minutes, ne 16:53 UTC
Vėjas 9 kt iš Vakarų
Temperatūra 32°C
Drėgmė 56%
Slėgis 1013 hPa
Matomumas: 16.1 km
Išsisklaidę debesys ne aukštis 3100 ft

METAR: KPMP 171653Z 27009KT 10SM SCT031 32/22 A2992 RMK AO2 SLP131 T03220222

Laikas: 13:39 (17:39 UTC)


TAF: trūkstamas

Orai ataskaitas ir orų prognozės (METAR, TAF).

turimą stotys yra geltonos ir raudonos taškus žemėlapyje.

Perkelti pele per norėdami pamatyti stoties vardą.

Tada spustelėkite, norėdami matyti oro stebėjimo ir prognozės.

Norėdami pakeisti žemėlapį: spustelėkite ant žalios mygtukų su juodo kryžiaus žemyn,; žalią mygtuką su brūkšneliu, jei norite nutolinti; arba žalių rodyklių gretimoms žemėlapius.


METAR-TAF: